^^
Datos históricos de la estación: Murcia-Puente Tocinos
Diario Informe para Mayo 12, 2021 Unidades:  Ingés    Métrico   Ambas
Diario Semanal Mensual Anual
  Máxima: Mínima: Promedio:
Temperatura: 81.9 °F 57.6 °F 70.2 °F
Punto de rocio: 49.3 °F 40.1 °F 43.2 °F
Humedad: 56.7% 25% 39%
Velocidad viento: 12.5mph 1.8mph 5.3mph
Racha viento: 22mph - -
Viento- - SSO
Presión: 30.1 in 29.9 in -
Precipitación: 0 in    
 
 
Tabla de datos para Mayo 12, 2021
Hora Temperatura Punto de rocio Presión Viento Velocidad viento Racha viento Humedad Intensidad lluvia(por hora) Nubes
00:04 64.9 °F 41 °F 30.1 in SSE 2.4 mph 6 mph 41.5% 0 in
00:09 64.9 °F 40.6 °F 30.1 in Sur 3.2 mph 9.2 mph 41% 0 in
00:14 64.9 °F 40.6 °F 30.1 in SSO 3.6 mph 9.2 mph 41% 0 in
00:19 64.9 °F 40.6 °F 30.1 in SSO 5.2 mph 9.7 mph 41% 0 in
00:24 64.9 °F 40.6 °F 30.1 in SSO 5.9 mph 10 mph 41% 0 in
00:29 64.9 °F 40.6 °F 30.1 in SSO 5.2 mph 10.4 mph 41% 0 in
00:34 64.9 °F 40.6 °F 30.1 in SSO 4.7 mph 10 mph 41% 0 in
00:39 64.9 °F 40.8 °F 30.1 in Sur 5.6 mph 9.2 mph 41.1% 0 in
00:44 64.8 °F 41.2 °F 30.1 in SSO 6.2 mph 9.2 mph 42% 0 in
00:49 64.8 °F 41 °F 30.1 in SSO 5.6 mph 9 mph 42% 0 in
00:54 64.6 °F 41 °F 30.1 in SSO 5.2 mph 8.5 mph 42% 0 in
00:59 64.8 °F 41 °F 30.1 in SSO 4.8 mph 9 mph 42% 0 in
01:04 64.8 °F 41.2 °F 30.1 in SSO 4.7 mph 8 mph 42.3% 0 in
01:09 64.6 °F 41.5 °F 30.1 in SO 4 mph 7 mph 43% 0 in
01:10 64.6 °F 41.5 °F 30.1 in SO 3.4 mph 6 mph 43% 0 in
01:24 64.2 °F 41.5 °F 30.1 in SE 2.9 mph 5 mph 43.6% 0 in
01:29 64 °F 42.1 °F 30.1 in SE 2.5 mph 5 mph 44.5% 0 in
01:30 63.9 °F 42.1 °F 30.1 in SE 2.3 mph 5 mph 45% 0 in
02:19 62.2 °F 42.3 °F 30.1 in SSE 3.1 mph 5.8 mph 48% 0 in
02:24 62.1 °F 42.1 °F 30.1 in SSE 3.1 mph 6 mph 48% 0 in
02:29 62.1 °F 42.4 °F 30.1 in SE 3.4 mph 6 mph 48.5% 0 in
02:34 62.1 °F 42.4 °F 30.1 in SSE 3.6 mph 5.8 mph 48.5% 0 in
02:39 61.9 °F 42.4 °F 30.1 in Sur 3.6 mph 6 mph 49% 0 in
02:44 61.9 °F 42.4 °F 30.1 in SSE 3.6 mph 6 mph 49% 0 in
02:49 61.9 °F 42.4 °F 30.1 in SSE 3.2 mph 7.4 mph 49% 0 in
02:54 61.7 °F 42.6 °F 30.1 in Sur 2.9 mph 7 mph 49.4% 0 in
02:59 61.5 °F 42.6 °F 30.1 in SSO 3.6 mph 7 mph 50% 0 in
03:04 61.5 °F 42.6 °F 30.1 in SSO 4 mph 6 mph 50% 0 in
03:09 61.5 °F 42.6 °F 30.1 in Sur 3.4 mph 5 mph 50% 0 in
03:14 61.5 °F 42.6 °F 30.1 in SO 2.9 mph 5 mph 50% 0 in
03:19 61.5 °F 42.8 °F 30.1 in SO 2.4 mph 4.6 mph 50% 0 in
03:24 61.7 °F 42.6 °F 30.1 in SO 2 mph 5 mph 49.6% 0 in
03:29 61.7 °F 42.6 °F 30.1 in SO 2.2 mph 5 mph 49.7% 0 in
03:34 61.5 °F 42.3 °F 30.1 in SSO 2.4 mph 4.7 mph 49.1% 0 in
03:39 61.5 °F 42.3 °F 30.1 in SO 2.4 mph 5.8 mph 49% 0 in
03:44 61.5 °F 42.1 °F 30.1 in SO 2.4 mph 6 mph 48.8% 0 in
03:49 61.5 °F 42.3 °F 30.1 in SO 2.4 mph 5 mph 49% 0 in
03:54 61.5 °F 42.3 °F 30.1 in SO 2.4 mph 5 mph 49.1% 0 in
03:59 61.3 °F 42.4 °F 30.1 in SO 2.4 mph 5 mph 50% 0 in
04:04 61.2 °F 42.6 °F 30.1 in SO 2.4 mph 5 mph 50.6% 0 in
04:09 61 °F 42.6 °F 30.1 in SO 2 mph 3.5 mph 51.1% 0 in
04:14 60.6 °F 43 °F 30.1 in SSO 1.8 mph 4.6 mph 52% 0 in
04:19 60.4 °F 42.8 °F 30.1 in Sur 2.2 mph 5.2 mph 52.1% 0 in
04:24 60.3 °F 43.2 °F 30.1 in SSE 2.4 mph 7.4 mph 53.3% 0 in
04:29 59.9 °F 43.3 °F 30.1 in Sur 3.5 mph 7.4 mph 54% 0 in
04:34 59.7 °F 43 °F 30.1 in Sur 4.3 mph 7 mph 54% 0 in
04:39 59.5 °F 43 °F 30.1 in Sur 4.5 mph 7 mph 54% 0 in
04:44 59.4 °F 43.2 °F 30.1 in Sur 4.7 mph 7 mph 54.8% 0 in
04:49 59.4 °F 43.2 °F 30.1 in Sur 4.5 mph 6.2 mph 55% 0 in
04:54 59.4 °F 43.2 °F 30.1 in Sur 4.3 mph 6.9 mph 55% 0 in
04:59 59.4 °F 43 °F 30.1 in Sur 4.5 mph 8.1 mph 54.5% 0 in
05:04 59.4 °F 42.8 °F 30.1 in Sur 4.7 mph 8.1 mph 54% 0 in
05:09 59.4 °F 42.8 °F 30.1 in Sur 5 mph 8.1 mph 54% 0 in
05:14 59.2 °F 42.4 °F 30.1 in Sur 5.2 mph 8.1 mph 54% 0 in
05:19 59 °F 42.4 °F 30.1 in Sur 5.2 mph 8 mph 54% 0 in
05:24 58.8 °F 42.3 °F 30.1 in SSO 5.2 mph 6.4 mph 54% 0 in
05:29 59 °F 42.3 °F 30.1 in SSO 4.3 mph 7 mph 54% 0 in
05:34 58.8 °F 42.3 °F 30.1 in SSO 3.6 mph 6.2 mph 53.8% 0 in
05:39 58.8 °F 42.1 °F 30.1 in SO 3.9 mph 6.2 mph 53.8% 0 in
05:44 58.8 °F 42.1 °F 30.1 in SSO 4 mph 6 mph 53.6% 0 in
05:49 58.8 °F 41.7 °F 30 in SSO 3.8 mph 6 mph 53.1% 0 in
05:54 58.8 °F 41.7 °F 30 in SSO 3.6 mph 6 mph 53% 0 in
05:59 59 °F 41.9 °F 30 in SSO 3.6 mph 6.9 mph 53% 0 in
06:04 59 °F 41.9 °F 30 in Sur 3.6 mph 7 mph 53% 0 in
06:09 59 °F 41.9 °F 30 in SSE 3.3 mph 5.2 mph 53% 0 in
06:14 58.8 °F 41.7 °F 30 in Sur 3.1 mph 6.9 mph 53.2% 0 in
06:19 58.6 °F 42.1 °F 30 in Sur 3.6 mph 7 mph 54% 0 in
06:24 58.5 °F 41.9 °F 30 in Sur 4 mph 7 mph 54% 0 in
06:29 58.5 °F 41.9 °F 30 in SSO 4 mph 6 mph 53.9% 0 in
06:34 58.5 °F 41.4 °F 30 in SO 4 mph 6 mph 53% 0 in
06:39 58.5 °F 41.4 °F 30 in SO 3 mph 4 mph 53% 0 in
06:44 58.6 °F 41.9 °F 30 in Oeste 2.4 mph 4.7 mph 53.9% 0 in
06:49 58.5 °F 41.9 °F 30 in SO 2.4 mph 5 mph 54% 0 in
06:54 58.3 °F 41.7 °F 30 in SSO 2.4 mph 5 mph 53.9% 0 in
06:59 58.3 °F 41.5 °F 30 in Sur 2.4 mph 5 mph 53.6% 0 in
07:04 58.5 °F 42.6 °F 30 in SE 2.4 mph 5 mph 55.6% 0 in
07:09 58.5 °F 43 °F 30 in ESE 2.4 mph 5.4 mph 56.3% 0 in
07:14 57.9 °F 42.8 °F 30 in SSE 2.4 mph 6 mph 56.7% 0 in
07:19 57.6 °F 42.1 °F 30 in Sur 2.8 mph 6.9 mph 56% 0 in
07:24 57.6 °F 41.7 °F 30 in SSO 3.1 mph 7 mph 55.3% 0 in
07:29 57.7 °F 41.5 °F 30.1 in SSO 2.7 mph 6.2 mph 54.7% 0 in
07:34 58.1 °F 41 °F 30.1 in SSE 2.4 mph 6.2 mph 53% 0 in
07:39 58.3 °F 41.2 °F 30.1 in SSE 3.6 mph 6.9 mph 53% 0 in
07:44 58.3 °F 41.2 °F 30.1 in Sur 4.3 mph 7 mph 53.1% 0 in
07:49 58.5 °F 41.4 °F 30.1 in Sur 4.2 mph 6.9 mph 53% 0 in
07:54 58.5 °F 41.4 °F 30.1 in Sur 4 mph 8.1 mph 53% 0 in
07:59 58.6 °F 41.2 °F 30.1 in SSO 4.8 mph 8.1 mph 52.5% 0 in
08:04 58.5 °F 41.2 °F 30.1 in SSO 5.2 mph 8.1 mph 52.4% 0 in
08:09 58.6 °F 41.2 °F 30.1 in SSO 5.3 mph 10.4 mph 52.2% 0 in
08:14 59 °F 41.4 °F 30.1 in SSO 5.4 mph 10 mph 52% 0 in
08:19 59.2 °F 41.5 °F 30.1 in SSO 5.3 mph 8.1 mph 51.8% 0 in
08:24 59.4 °F 41.2 °F 30.1 in SSO 5.2 mph 8 mph 51% 0 in
08:29 59.5 °F 41.4 °F 30.1 in SSO 4.9 mph 8.1 mph 51% 0 in
08:34 59.7 °F 41.5 °F 30.1 in SSO 4.7 mph 9.2 mph 51% 0 in
08:39 59.9 °F 41.7 °F 30.1 in Sur 5 mph 9.2 mph 51% 0 in
08:44 60.1 °F 41.5 °F 30.1 in Sur 5.2 mph 9 mph 50.4% 0 in
08:49 60.3 °F 41.5 °F 30.1 in Sur 5.3 mph 8.1 mph 50% 0 in
08:54 60.4 °F 41.5 °F 30.1 in SSO 5.4 mph 6.9 mph 50% 0 in
08:59 60.6 °F 41.9 °F 30.1 in Sur 4.9 mph 7 mph 50% 0 in
09:04 61 °F 41.7 °F 30.1 in Sur 4.7 mph 7 mph 49.1% 0 in
09:09 61.3 °F 41.9 °F 30.1 in SSO 4.7 mph 8.1 mph 49% 0 in
09:14 61.7 °F 42.3 °F 30.1 in Sur 4.7 mph 8 mph 49% 0 in
09:19 62.2 °F 42.8 °F 30.1 in Sur 4.3 mph 7 mph 49% 0 in
09:24 62.8 °F 42.4 °F 30.1 in SSO 4 mph 7.4 mph 47.5% 0 in
09:29 63 °F 41.9 °F 30.1 in OSO 4.2 mph 8.1 mph 46.3% 0 in
09:34 63.1 °F 41.9 °F 30.1 in SSO 4.3 mph 8 mph 45.8% 0 in
09:39 63.3 °F 41.7 °F 30.1 in SO 4.3 mph 8.5 mph 45% 0 in
09:44 63.5 °F 41.7 °F 30.1 in SO 4.3 mph 9 mph 44.8% 0 in
09:49 63.9 °F 41.5 °F 30.1 in SO 4.1 mph 8 mph 44% 0 in
09:54 64 °F 41.7 °F 30.1 in Oeste 4 mph 8.1 mph 44% 0 in
09:59 64.2 °F 41.7 °F 30.1 in OSO 4.2 mph 9.2 mph 44% 0 in
10:04 64.6 °F 42.1 °F 30.1 in OSO 4.3 mph 9.2 mph 43.8% 0 in
10:09 64.9 °F 41.9 °F 30.1 in SO 4.3 mph 9.2 mph 43.1% 0 in
10:14 65.1 °F 41.7 °F 30.1 in SO 4.3 mph 7 mph 42.4% 0 in
10:19 65.5 °F 41.7 °F 30.1 in Oeste 3.9 mph 7 mph 42% 0 in
10:24 66 °F 42.1 °F 30.1 in OSO 3.6 mph 6.2 mph 41.6% 0 in
10:29 66.6 °F 42.1 °F 30.1 in SO 3.6 mph 6 mph 40.9% 0 in
10:34 67.1 °F 42.1 °F 30 in SE 3.6 mph 6 mph 40.2% 0 in
10:39 68 °F 42.4 °F 30 in ESE 2.8 mph 6.9 mph 39.5% 0 in
10:44 68.4 °F 42.4 °F 30 in SSE 2.4 mph 7 mph 39% 0 in
10:49 68.5 °F 42.1 °F 30 in Oeste 2.8 mph 5.8 mph 38.2% 0 in
10:54 69.1 °F 42.3 °F 30 in Sur 3.1 mph 6 mph 37.9% 0 in
10:59 69.6 °F 42.3 °F 30 in ESE 2.4 mph 5.8 mph 37% 0 in
11:04 70.2 °F 42.1 °F 30 in Este 2 mph 6 mph 36.2% 0 in
11:09 70.5 °F 42.1 °F 30 in NE 2.5 mph 6 mph 35.7% 0 in
11:14 70.9 °F 41.5 °F 30 in OSO 2.9 mph 6.9 mph 34.6% 0 in
11:19 70.5 °F 40.8 °F 30 in OSO 3 mph 7 mph 34% 0 in
11:24 70.7 °F 40.8 °F 30 in OSO 3.1 mph 8.1 mph 34% 0 in
11:29 70.7 °F 40.8 °F 30 in OSO 3.7 mph 8 mph 34% 0 in
11:34 70.9 °F 41 °F 30 in OSO 4 mph 9.7 mph 34% 0 in
11:39 70.9 °F 41 °F 30 in SO 4.4 mph 10 mph 34% 0 in
11:44 71.1 °F 41.2 °F 30 in SSO 4.7 mph 9.2 mph 34% 0 in
11:49 71.2 °F 41.4 °F 30 in SO 4 mph 9 mph 33.8% 0 in
11:54 72 °F 41.2 °F 30 in OSO 3.6 mph 7.4 mph 33.1% 0 in
11:59 72.1 °F 41.5 °F 30 in ONO 4 mph 7.4 mph 33% 0 in
12:04 72.5 °F 41.7 °F 30 in Oeste 4.3 mph 9.7 mph 32.9% 0 in
12:09 72.9 °F 41.5 °F 30 in SSO 4.2 mph 10 mph 32.2% 0 in
12:14 73 °F 41.5 °F 30 in Oeste 4 mph 8 mph 32.1% 0 in
12:19 73.2 °F 41.5 °F 30 in OSO 3.8 mph 9.2 mph 32% 0 in
12:24 73.4 °F 41.7 °F 30 in OSO 3.6 mph 9.2 mph 32% 0 in
12:29 73.8 °F 41.9 °F 30 in Sur 4.2 mph 9 mph 31.9% 0 in
12:34 74.1 °F 41.5 °F 30 in SO 4.7 mph 9 mph 31% 0 in
12:39 74.1 °F 41.5 °F 30 in SO 5 mph 14 mph 31% 0 in
12:44 73.9 °F 41.4 °F 30 in Oeste 5.2 mph 14 mph 31% 0 in
12:49 74.3 °F 41.5 °F 30 in ONO 4.3 mph 7.4 mph 31% 0 in
12:54 74.7 °F 42.1 °F 30 in NNO 3.6 mph 8.5 mph 31% 0 in
12:59 75.4 °F 41.7 °F 30 in SSO 4.1 mph 11.8 mph 29.8% 0 in
13:04 75.6 °F 41.5 °F 30 in SSE 4.3 mph 12 mph 29.6% 0 in
13:09 75.9 °F 41.4 °F 30 in SO 4.9 mph 12 mph 29.1% 0 in
13:14 75.7 °F 40.5 °F 30 in ONO 5.2 mph 9 mph 28.1% 0 in
13:19 75.9 °F 40.5 °F 30 in NO 4.2 mph 6.9 mph 28% 0 in
13:24 76.5 °F 40.5 °F 30 in SSE 3.6 mph 7 mph 27.6% 0 in
13:29 76.6 °F 40.6 °F 30 in NNE 3.3 mph 10.4 mph 27.5% 0 in
13:34 76.6 °F 40.5 °F 30 in NNE 3.1 mph 10 mph 27.3% 0 in
13:39 77 °F 40.8 °F 30 in North 3.4 mph 8 mph 27.5% 0 in
13:44 77.5 °F 41 °F 30 in Oeste 3.6 mph 8.1 mph 27% 0 in
13:49 78.3 °F 41 °F 30 in OSO 3.3 mph 8.7 mph 26.5% 0 in
13:54 78.1 °F 40.3 °F 30 in OSO 3.1 mph 9.2 mph 26% 0 in
13:59 77.9 °F 40.5 °F 30 in Oeste 4.2 mph 10.4 mph 26.2% 0 in
14:04 77.9 °F 40.3 °F 30 in ONO 4.7 mph 13 mph 26% 0 in
14:09 77.5 °F 40.6 °F 30 in NNO 6 mph 13 mph 26.8% 0 in
14:14 77.5 °F 40.8 °F 30 in NNE 6.9 mph 11.8 mph 27% 0 in
14:19 77.5 °F 40.1 °F 30 in NNO 5.6 mph 12 mph 26.2% 0 in
14:24 77.5 °F 40.8 °F 30 in NNE 4.7 mph 12 mph 26.9% 0 in
14:29 77.9 °F 41.2 °F 30 in ONO 4.2 mph 8.1 mph 26.9% 0 in
14:34 78.3 °F 40.8 °F 30 in NNO 4 mph 8.1 mph 26.3% 0 in
14:39 78.4 °F 40.6 °F 30 in ONO 4.4 mph 8.1 mph 26% 0 in
14:44 78.4 °F 40.8 °F 30 in SSO 4.7 mph 7.4 mph 26% 0 in
14:49 78.6 °F 40.8 °F 29.9 in NE 3.7 mph 8.7 mph 26% 0 in
14:54 78.8 °F 41 °F 29.9 in SE 3.1 mph 9.2 mph 26% 0 in
14:59 79.2 °F 41.5 °F 29.9 in Este 3.7 mph 8 mph 26.1% 0 in
15:04 79.5 °F 41.9 °F 29.9 in NE 4 mph 7 mph 26.2% 0 in
15:09 80.2 °F 41.7 °F 29.9 in Este 3.7 mph 9.2 mph 25.5% 0 in
15:14 80.2 °F 41.4 °F 29.9 in ESE 3.6 mph 10.4 mph 25.3% 0 in
15:19 80.1 °F 41.5 °F 29.9 in SSE 4.9 mph 10.4 mph 25.4% 0 in
15:24 79.9 °F 41.7 °F 29.9 in Sur 5.9 mph 10 mph 25.8% 0 in
15:29 80.1 °F 42.1 °F 29.9 in SE 5.2 mph 8 mph 26% 0 in
15:34 80.2 °F 41.7 °F 29.9 in Sur 4.7 mph 7 mph 25.6% 0 in
15:39 80.8 °F 41.5 °F 29.9 in Sur 3.8 mph 6.9 mph 25% 0 in
15:44 81.1 °F 42.3 °F 29.9 in SSE 3.1 mph 8.5 mph 25.3% 0 in
15:49 81.3 °F 44.8 °F 29.9 in ESE 3.9 mph 16.8 mph 27.7% 0 in
15:54 81 °F 45.7 °F 29.9 in ESE 4.3 mph 20.7 mph 28.8% 0 in
15:59 80.4 °F 46 °F 29.9 in ESE 9.1 mph 21 mph 29.8% 0 in
16:04 80.2 °F 47.8 °F 29.9 in ESE 11.2 mph 19.7 mph 32.2% 0 in
16:09 80.1 °F 48.4 °F 29.9 in ESE 11.4 mph 20.7 mph 33% 0 in
16:14 80.2 °F 48.4 °F 29.9 in ESE 11.4 mph 20.7 mph 32.9% 0 in
16:19 80.1 °F 48.4 °F 29.9 in SE 11.4 mph 21 mph 33% 0 in
16:24 79.9 °F 48.6 °F 29.9 in SE 11.4 mph 18.4 mph 33.5% 0 in
16:29 79.5 °F 48.7 °F 29.9 in ESE 11.3 mph 18 mph 34.1% 0 in
16:34 79.5 °F 48.7 °F 29.9 in ESE 11.2 mph 21.3 mph 34.1% 0 in
16:39 79.5 °F 48.7 °F 29.9 in ESE 11.6 mph 21.3 mph 34% 0 in
16:44 79.5 °F 49.3 °F 29.9 in SE 11.8 mph 21 mph 34.7% 0 in
16:49 79.5 °F 48.7 °F 29.9 in SE 11.6 mph 21 mph 34.1% 0 in
16:54 79.5 °F 48.7 °F 29.9 in SE 11.4 mph 21 mph 34% 0 in
16:59 80.2 °F 48.6 °F 29.9 in ESE 11 mph 16.1 mph 33% 0 in
17:04 80.4 °F 48.6 °F 29.9 in SE 10.7 mph 16 mph 32.9% 0 in
17:09 80.8 °F 48.7 °F 29.9 in SE 10.1 mph 17.3 mph 32.8% 0 in
17:14 81 °F 48.7 °F 29.9 in SE 9.7 mph 17 mph 32.5% 0 in
17:19 81.1 °F 48.6 °F 29.9 in SSE 9.7 mph 16 mph 32% 0 in
17:24 81.1 °F 48.4 °F 29.9 in SSE 9.7 mph 15.2 mph 32% 0 in
17:29 80.8 °F 48.2 °F 29.9 in SE 9.7 mph 15 mph 32% 0 in
17:34 81 °F 48.4 °F 29.9 in ESE 9.7 mph 18.5 mph 32.1% 0 in
17:39 80.6 °F 48.6 °F 29.9 in SE 9.9 mph 19 mph 32.6% 0 in
17:44 80.6 °F 48.2 °F 29.9 in ESE 10 mph 18.4 mph 32.1% 0 in
17:49 80.8 °F 48.4 °F 29.9 in ESE 9.1 mph 18.4 mph 32.3% 0 in
17:54 80.6 °F 48.2 °F 29.9 in Este 8.5 mph 21.3 mph 32.2% 0 in
17:59 80.4 °F 48.4 °F 29.9 in ESE 11 mph 21 mph 32.8% 0 in
18:04 80.4 °F 47.8 °F 29.9 in ESE 12.5 mph 21 mph 32% 0 in
18:09 80.1 °F 48.4 °F 29.9 in ESE 12.4 mph 21 mph 33% 0 in
18:14 80.2 °F 48.4 °F 29.9 in ESE 12.3 mph 19.6 mph 33% 0 in
18:19 80.2 °F 48.4 °F 29.9 in ESE 11.4 mph 20 mph 33% 0 in
18:24 80.2 °F 48.4 °F 29.9 in ESE 10.7 mph 18.5 mph 33% 0 in
18:29 80.2 °F 48 °F 29.9 in ESE 11.1 mph 19 mph 32.4% 0 in
18:34 80.6 °F 48 °F 29.9 in SE 11.4 mph 18 mph 32% 0 in
18:39 80.8 °F 48.2 °F 29.9 in SE 10.5 mph 14.5 mph 32% 0 in
18:44 80.8 °F 48.2 °F 29.9 in SE 10 mph 16.3 mph 32% 0 in
18:49 81 °F 47.7 °F 29.9 in ESE 10.4 mph 16 mph 31.2% 0 in
18:54 81.1 °F 48.4 °F 29.9 in SE 10.7 mph 14 mph 32% 0 in
18:59 81.1 °F 48.6 °F 29.9 in ESE 8.6 mph 13.5 mph 32% 0 in
19:04 81 °F 48.4 °F 29.9 in ESE 7.4 mph 15.2 mph 32% 0 in
19:09 80.8 °F 48.2 °F 29.9 in ESE 8.1 mph 15 mph 32% 0 in
19:14 80.4 °F 48 °F 29.9 in ESE 8.5 mph 14 mph 32.2% 0 in
19:19 80.4 °F 48.6 °F 29.9 in SE 8.3 mph 14 mph 32.9% 0 in
19:24 80.4 °F 48 °F 29.9 in SE 8.1 mph 12 mph 32.1% 0 in
19:29 80.4 °F 48 °F 29.9 in SE 6.4 mph 12 mph 32% 0 in
19:34 80.8 °F 48.2 °F 29.9 in ESE 5.4 mph 8 mph 32% 0 in
19:39 80.6 °F 48 °F 29.9 in ENE 4.6 mph 7.4 mph 32% 0 in
19:44 80.4 °F 48 °F 29.9 in NE 4 mph 7 mph 32.1% 0 in
19:49 80.4 °F 48.2 °F 29.9 in North 4 mph 6.9 mph 32.4% 0 in
19:54 80.6 °F 46.4 °F 29.9 in ONO 4 mph 17.5 mph 30.2% 0 in
19:59 81.1 °F 44.2 °F 29.9 in OSO 4.8 mph 17.3 mph 27.3% 0 in
20:04 81.9 °F 44.2 °F 29.9 in ONO 5.4 mph 16 mph 26.7% 0 in
20:09 81.5 °F 43.3 °F 29.9 in ONO 6.8 mph 20.7 mph 26% 0 in
20:14 81.1 °F 43 °F 29.9 in ONO 7.6 mph 21 mph 26% 0 in
20:19 81 °F 43.5 °F 29.9 in ONO 10.1 mph 19 mph 26.7% 0 in
20:24 80.8 °F 43.7 °F 29.9 in ONO 11.4 mph 21.9 mph 27% 0 in
20:29 80.6 °F 43.5 °F 29.9 in ONO 11.4 mph 22 mph 27% 0 in
20:34 80.4 °F 43.3 °F 29.9 in ONO 11.4 mph 18.5 mph 27% 0 in
20:39 80.2 °F 43.9 °F 29.9 in ONO 10.4 mph 19 mph 27.6% 0 in
20:44 80.1 °F 44.1 °F 29.9 in ONO 9.7 mph 16.1 mph 28% 0 in
20:49 80.1 °F 44.1 °F 29.9 in Oeste 8.8 mph 16 mph 28% 0 in
20:54 79.9 °F 43.9 °F 29.9 in Oeste 8.1 mph 17.5 mph 28% 0 in
20:59 79.5 °F 43.7 °F 29.9 in Oeste 8.4 mph 17 mph 28.1% 0 in
21:04 79.3 °F 44.2 °F 29.9 in Oeste 8.5 mph 16.1 mph 29% 0 in
21:09 79.2 °F 44.2 °F 29.9 in Oeste 8.9 mph 16 mph 29% 0 in
21:10 79 °F 44.1 °F 29.9 in Oeste 9.1 mph 14 mph 29% 0 in
21:34 77.4 °F 44.4 °F 29.9 in ONO 8.7 mph 14 mph 31% 0 in
21:39 77 °F 44.1 °F 29.9 in ONO 7.3 mph 12 mph 31% 0 in
21:44 76.6 °F 43.7 °F 29.9 in NO 6.2 mph 14 mph 31% 0 in
21:49 76.5 °F 43.5 °F 29.9 in NO 6.2 mph 14 mph 31% 0 in
21:54 76.3 °F 43.3 °F 29.9 in NO 6.2 mph 8.5 mph 31% 0 in
21:59 76.1 °F 43.7 °F 30 in NO 4.8 mph 9 mph 31.4% 0 in
22:04 75.9 °F 43.5 °F 30 in Oeste 4 mph 9.2 mph 31.5% 0 in
22:09 75.7 °F 42.8 °F 30 in Oeste 4 mph 11.5 mph 31% 0 in
22:14 75.6 °F 42.8 °F 30 in ONO 4 mph 12 mph 31% 0 in
22:19 75.2 °F 42.4 °F 30 in ONO 4.8 mph 12 mph 31% 0 in
22:24 74.8 °F 42.1 °F 30 in ONO 5.4 mph 12 mph 31% 0 in
22:29 74.7 °F 41.9 °F 30 in ONO 6 mph 12 mph 31% 0 in
22:34 74.5 °F 41.9 °F 30 in ONO 6.4 mph 12 mph 31% 0 in
22:35 74.3 °F 41.7 °F 30 in ONO 7 mph 10 mph 31% 0 in
Murcia-Puente Tocinos, España
Compliments of Weather Underground - 2.75 mb

La estación de MeteoMurcia.com, publica sus datos en los siguientes proyectos:

Weather Underground PWS IMURCIAP2 Meteoclimatic www.awekas.at

W3Counter
Web Analytics